الصفحة الرئيسية
METAR-TAF:

METAR-TAF

مطار :

مطار لارنكا الدولي

لارنكا, قبرص

دائرة عرض: 34-53N, خط طول: 033-38E, ارتفاع: 2 متر

مراقبة الطقس الحالي

تاريخ ووقت الإصدار 14 دقيقة قبل الساعة 20:00UTC
ريح 3 عقدة من الجنوب الغربي
درجة الحرارة 27°درجة مئوية
الرطوبة 94%
ضغط 1007 hPa
الرؤية 10 كم أو أكثر
الغيوم لا تقل 1500 م ولا وجود لمزنة ركامية السحاب الأسود

METAR: LCLK 162000Z 23003KT CAVOK 27/26 Q1007 NOSIG

زمن: 23:14 (20:14 UTC)

توقعات

تاريخ ووقت الإصدار 2ساعات و 44 دقيقة قبل الساعة 17:30UTC
التوقعات صالحة من16 الساعة 18 UTC إلى 17 الساعة 18 UTC
ريح 6 عقدة من الشمال الغربي
الرؤية 10 كم أو أكثر
غيوم قليلة على ارتفاع 2000 قدم
نظرية الاحتمالات 30%
من 16 الساعة 22 UTC إلى 17 الساعة 05 UTC
الرؤية: 5000 متر
غيوم مفككة على ارتفاع 600 قدم
غشاء
أصبح
من 17 الساعة 07 UTC إلى 17 الساعة 11 UTC
ريح 16 عقدة من الجنوب/الجنوب الغربي

TAF: LCLK 161730Z 1618/1718 32006KT 9999 FEW020 PROB30 1622/1705 5000 BR BKN006 BECMG 1707/1711 21016KT

أرصاد الطقس والتوقعات من أكثر من 4000 مطار (تقارير الطقس للمطار METAR والتنبؤ بالطقس بالمطارTAF).

المحطات المتاحة هي النقط الصفراء والحمراء على الخريطة.

حرك المؤشر فوق النقطة لمعرفة اسم المحطة.

ثم انقر لمعرفة أرصاد وتوقعات الطقس.

لتغيير الخارطة: اضغط على الأزرار الخضراء مع رمز الصليب الأسود للتكبير. على الزر الأخضر مع شرطة للتصغير، أو على الأسهم الخضراء للخرائط المجاورة.


METAR-TAF: